createdAt,value
2024-02-08T00:00:39.163Z,93725.44
2024-02-08T00:03:09.029Z,93729.28
2024-02-08T00:05:37.971Z,93726.25
2024-02-08T00:08:06.066Z,93710.91
2024-02-08T00:10:33.154Z,93720.94
2024-02-08T00:12:59.898Z,93719.06
2024-02-08T00:15:26.565Z,93725.19
2024-02-08T00:17:53.324Z,93727.78
2024-02-08T00:20:19.996Z,93714.16
2024-02-08T00:22:48.065Z,93723.84
2024-02-08T00:25:14.841Z,93728.28
2024-02-08T00:27:41.540Z,93735.63
2024-02-08T00:30:08.442Z,93735.28
2024-02-08T00:32:35.100Z,93739.88
2024-02-08T00:35:07.820Z,93728.38
2024-02-08T00:37:36.887Z,93732.75
2024-02-08T00:40:03.623Z,93724.91
2024-02-08T00:42:30.281Z,93728.31
2024-02-08T00:44:56.874Z,93720.97
2024-02-08T00:47:25.958Z,93716.81
2024-02-08T00:49:52.703Z,93706.78
2024-02-08T00:52:19.846Z,93714.28
2024-02-08T00:54:46.600Z,93706.72
2024-02-08T00:57:13.501Z,93711.00
2024-02-08T00:59:40.817Z,93710.00
2024-02-08T01:02:08.207Z,93709.59
2024-02-08T01:04:35.195Z,93702.78
2024-02-08T01:07:02.042Z,93712.25
2024-02-08T01:09:29.260Z,93707.09
2024-02-08T01:11:55.974Z,93703.94
2024-02-08T01:14:25.597Z,93702.50
2024-02-08T01:16:53.232Z,93707.41
2024-02-08T01:19:26.958Z,93712.50
2024-02-08T01:21:54.126Z,93709.72
2024-02-08T01:24:20.886Z,93705.94
2024-02-08T01:26:48.270Z,93708.34
2024-02-08T01:29:15.417Z,93708.25
2024-02-08T01:31:42.454Z,93702.03
2024-02-08T01:34:09.619Z,93716.66
2024-02-08T01:36:41.135Z,93704.72
2024-02-08T01:39:14.449Z,93700.38
2024-02-08T01:41:44.389Z,93705.72
2024-02-08T01:44:14.538Z,93695.22
2024-02-08T01:46:41.798Z,93704.16
2024-02-08T01:49:09.239Z,93696.97
2024-02-08T01:51:37.468Z,93696.66
2024-02-08T01:54:04.622Z,93694.44
2024-02-08T01:56:31.892Z,93694.56
2024-02-08T01:59:01.526Z,93680.44
2024-02-08T02:01:28.416Z,93678.16
2024-02-08T02:03:55.132Z,93680.88
2024-02-08T02:06:21.834Z,93677.19
2024-02-08T02:09:09.034Z,93681.59
2024-02-08T02:11:52.816Z,93672.94
2024-02-08T02:14:19.820Z,93666.84
2024-02-08T02:16:47.801Z,93669.56
2024-02-08T02:19:14.610Z,93675.72
2024-02-08T02:21:41.288Z,93664.16
2024-02-08T02:24:09.111Z,93656.16
2024-02-08T02:26:36.311Z,93653.78
2024-02-08T02:31:33.799Z,93648.94
2024-02-08T02:34:01.019Z,93654.56
2024-02-08T02:36:27.709Z,93648.34
2024-02-08T02:38:54.476Z,93637.63
2024-02-08T02:41:26.509Z,93636.75
2024-02-08T02:43:53.528Z,93644.06
2024-02-08T02:46:23.573Z,93647.50
2024-02-08T02:48:51.804Z,93641.84
2024-02-08T02:51:18.623Z,93639.56
2024-02-08T02:53:46.548Z,93640.25
2024-02-08T02:56:13.681Z,93651.34
2024-02-08T02:58:41.179Z,93640.66
2024-02-08T03:01:08.051Z,93644.47
2024-02-08T03:03:42.215Z,93639.50
2024-02-08T03:06:16.586Z,93643.41
2024-02-08T03:08:47.797Z,93648.66
2024-02-08T03:11:15.159Z,93643.03
2024-02-08T03:13:43.125Z,93641.56
2024-02-08T03:16:16.099Z,93637.53
2024-02-08T03:18:47.984Z,93648.69
2024-02-08T03:21:23.408Z,93644.81
2024-02-08T03:23:51.193Z,93641.06
2024-02-08T03:26:18.486Z,93642.78
2024-02-08T03:28:47.313Z,93649.13
2024-02-08T03:31:15.635Z,93646.59
2024-02-08T03:33:45.178Z,93642.50
2024-02-08T03:36:13.437Z,93648.66
2024-02-08T03:38:40.769Z,93645.47
2024-02-08T03:41:07.534Z,93653.38
2024-02-08T03:43:34.465Z,93653.88
2024-02-08T03:46:03.114Z,93648.50
2024-02-08T03:48:30.392Z,93653.91
2024-02-08T03:51:02.428Z,93655.19
2024-02-08T03:53:30.734Z,93658.09
2024-02-08T03:55:57.548Z,93650.47
2024-02-08T03:58:25.029Z,93655.44
2024-02-08T04:00:55.299Z,93665.06
2024-02-08T04:03:45.868Z,93650.00
2024-02-08T04:06:39.912Z,93637.34
2024-02-08T04:09:10.356Z,93646.91
2024-02-08T04:11:56.186Z,93654.31
2024-02-08T04:14:41.635Z,93656.00
2024-02-08T04:17:26.976Z,93651.63
2024-02-08T04:20:12.588Z,93647.75
2024-02-08T04:22:58.313Z,93640.69
2024-02-08T04:26:03.627Z,93648.19
2024-02-08T04:28:48.981Z,93655.56
2024-02-08T04:31:34.446Z,93646.72
2024-02-08T04:34:19.612Z,93654.28
2024-02-08T04:37:06.726Z,93643.47
2024-02-08T04:39:52.095Z,93633.94
2024-02-08T04:42:37.443Z,93645.44
2024-02-08T04:45:22.953Z,93634.53
2024-02-08T04:48:08.411Z,93638.44
2024-02-08T04:50:53.889Z,93631.06
2024-02-08T04:53:37.714Z,93629.66
2024-02-08T04:56:10.311Z,93634.56
2024-02-08T04:58:58.875Z,93623.06
2024-02-08T05:01:27.522Z,93622.00
2024-02-08T05:03:54.279Z,93622.38
2024-02-08T05:06:23.061Z,93610.53
2024-02-08T05:08:52.192Z,93615.91
2024-02-08T05:11:19.086Z,93627.34
2024-02-08T05:13:52.581Z,93623.50
2024-02-08T05:16:19.898Z,93620.34
2024-02-08T05:18:48.362Z,93622.94
2024-02-08T05:21:16.215Z,93624.28
2024-02-08T05:23:43.285Z,93627.66
2024-02-08T05:26:11.241Z,93641.84
2024-02-08T05:28:38.530Z,93630.66
2024-02-08T05:31:05.925Z,93633.91
2024-02-08T05:33:34.289Z,93629.38
2024-02-08T05:36:08.188Z,93624.41
2024-02-08T05:38:46.764Z,93634.44
2024-02-08T05:41:19.585Z,93631.63
2024-02-08T05:43:46.557Z,93628.50
2024-02-08T05:46:26.831Z,93627.59
2024-02-08T05:48:55.545Z,93632.78
2024-02-08T05:51:22.425Z,93634.53
2024-02-08T05:53:49.263Z,93638.47
2024-02-08T05:56:16.374Z,93639.56
2024-02-08T05:58:45.707Z,93636.28
2024-02-08T06:01:21.348Z,93634.97
2024-02-08T06:03:49.306Z,93622.88
2024-02-08T06:06:34.715Z,93635.22
2024-02-08T06:09:09.913Z,93639.63
2024-02-08T06:11:40.370Z,93624.28
2024-02-08T06:14:27.809Z,93617.03
2024-02-08T06:16:58.374Z,93620.03
2024-02-08T06:19:25.140Z,93616.09
2024-02-08T06:21:58.916Z,93616.78
2024-02-08T06:24:25.642Z,93619.13
2024-02-08T06:27:14.918Z,93612.75
2024-02-08T06:29:47.995Z,93611.47
2024-02-08T06:32:27.481Z,93616.09
2024-02-08T06:34:57.250Z,93613.66
2024-02-08T06:37:31.637Z,93617.56
2024-02-08T06:39:59.462Z,93615.88
2024-02-08T06:42:39.644Z,93615.38
2024-02-08T06:45:25.116Z,93611.63
2024-02-08T06:48:01.160Z,93620.81
2024-02-08T06:50:46.997Z,93616.22
2024-02-08T06:53:35.307Z,93617.09
2024-02-08T06:56:22.935Z,93622.22
2024-02-08T06:59:08.183Z,93619.59
2024-02-08T07:01:55.398Z,93621.88
2024-02-08T07:04:40.995Z,93615.44
2024-02-08T07:07:26.612Z,93610.97
2024-02-08T07:10:12.060Z,93612.59
2024-02-08T07:12:57.553Z,93605.56
2024-02-08T07:15:42.922Z,93616.22
2024-02-08T07:18:28.405Z,93609.81
2024-02-08T07:21:13.852Z,93612.06
2024-02-08T07:23:59.157Z,93610.88
2024-02-08T07:26:44.486Z,93605.72
2024-02-08T07:29:29.967Z,93613.25
2024-02-08T07:32:15.426Z,93601.34
2024-02-08T07:35:02.724Z,93603.09
2024-02-08T07:37:30.895Z,93606.06
2024-02-08T07:40:03.980Z,93608.25
2024-02-08T07:42:31.257Z,93609.34
2024-02-08T07:44:58.965Z,93610.00
2024-02-08T07:47:26.625Z,93614.16
2024-02-08T07:50:13.826Z,93620.28
2024-02-08T07:52:56.956Z,93618.38
2024-02-08T07:55:47.924Z,93625.53
2024-02-08T07:58:19.791Z,93619.50
2024-02-08T08:00:46.643Z,93626.38
2024-02-08T08:03:17.652Z,93619.16
2024-02-08T08:05:46.152Z,93614.31
2024-02-08T08:08:26.812Z,93608.03
2024-02-08T08:10:58.442Z,93595.84
2024-02-08T08:13:45.542Z,93616.09
2024-02-08T08:16:30.848Z,93605.19
2024-02-08T08:19:09.212Z,93600.72
2024-02-08T08:22:02.257Z,93605.28
2024-02-08T08:24:29.094Z,93606.81
2024-02-08T08:27:27.376Z,93602.69
2024-02-08T08:29:59.881Z,93605.06
2024-02-08T08:32:32.986Z,93588.88
2024-02-08T08:35:39.720Z,93596.03
2024-02-08T08:38:19.000Z,93595.13
2024-02-08T08:40:49.416Z,93593.06
2024-02-08T08:43:24.454Z,93593.66
2024-02-08T08:45:52.330Z,93592.69
2024-02-08T08:48:22.578Z,93595.16
2024-02-08T08:50:59.169Z,93594.44
2024-02-08T08:53:29.493Z,93589.31
2024-02-08T08:55:56.903Z,93584.75
2024-02-08T08:58:29.196Z,93599.00
2024-02-08T09:01:14.923Z,93595.38
2024-02-08T09:03:42.245Z,93587.09
2024-02-08T09:06:13.459Z,93593.66
2024-02-08T09:08:47.343Z,93589.97
2024-02-08T09:11:15.324Z,93581.69
2024-02-08T09:13:44.121Z,93584.13
2024-02-08T09:16:23.347Z,93586.19
2024-02-08T09:19:03.419Z,93590.47
2024-02-08T09:21:33.450Z,93592.78
2024-02-08T09:24:07.608Z,93600.00
2024-02-08T09:26:50.599Z,93593.16
2024-02-08T09:29:28.635Z,93581.84
2024-02-08T09:31:59.850Z,93576.97
2024-02-08T09:34:41.952Z,93581.00
2024-02-08T09:37:10.303Z,93579.81
2024-02-08T09:39:57.003Z,93586.22
2024-02-08T09:42:28.450Z,93584.16
2024-02-08T09:44:57.973Z,93580.91
2024-02-08T09:47:32.827Z,93583.59
2024-02-08T09:50:09.006Z,93582.94
2024-02-08T09:52:50.028Z,93588.16
2024-02-08T09:55:21.209Z,93585.84
2024-02-08T09:57:48.275Z,93583.91
2024-02-08T10:00:53.207Z,93585.06
2024-02-08T10:03:33.433Z,93570.81
2024-02-08T10:06:13.694Z,93574.59
2024-02-08T10:09:09.504Z,93582.06
2024-02-08T10:11:41.965Z,93581.75
2024-02-08T10:14:26.445Z,93576.81
2024-02-08T10:16:59.752Z,93575.63
2024-02-08T10:19:30.424Z,93576.72
2024-02-08T10:22:16.545Z,93574.06
2024-02-08T10:25:06.178Z,93567.81
2024-02-08T10:27:37.038Z,93561.34
2024-02-08T10:30:06.977Z,93562.13
2024-02-08T10:32:34.042Z,93558.13
2024-02-08T10:35:22.079Z,93556.31
2024-02-08T10:37:50.675Z,93554.75
2024-02-08T10:40:30.530Z,93544.31
2024-02-08T10:43:01.339Z,93544.28
2024-02-08T10:45:33.519Z,93531.97
2024-02-08T10:48:01.598Z,93533.78
2024-02-08T10:50:29.214Z,93528.63
2024-02-08T10:54:24.804Z,93537.47
2024-02-08T10:57:09.637Z,93529.00
2024-02-08T10:59:51.806Z,93525.25
2024-02-08T11:02:36.724Z,93524.16
2024-02-08T11:05:38.794Z,93518.53
2024-02-08T11:08:14.798Z,93515.56
2024-02-08T11:10:46.278Z,93506.50
2024-02-08T11:13:16.793Z,93509.16
2024-02-08T11:15:49.222Z,93503.03
2024-02-08T11:18:37.178Z,93500.53
2024-02-08T11:21:14.459Z,93491.63
2024-02-08T11:23:47.813Z,93495.22
2024-02-08T11:26:19.698Z,93486.25
2024-02-08T11:28:51.665Z,93477.94
2024-02-08T11:31:19.083Z,93488.03
2024-02-08T11:33:46.423Z,93485.06
2024-02-08T11:36:15.176Z,93488.19
2024-02-08T11:39:09.748Z,93481.91
2024-02-08T11:41:44.183Z,93482.28
2024-02-08T11:44:13.053Z,93487.03
2024-02-08T11:46:47.740Z,93478.03
2024-02-08T11:49:32.997Z,93481.13
2024-02-08T11:52:08.607Z,93475.06
2024-02-08T11:54:39.284Z,93473.34
2024-02-08T11:57:14.387Z,93459.38
2024-02-08T11:59:46.281Z,93467.41
2024-02-08T12:02:17.651Z,93465.22
2024-02-08T12:04:44.486Z,93460.66
2024-02-08T12:07:16.033Z,93462.09
2024-02-08T12:09:42.831Z,93463.50
2024-02-08T12:12:10.205Z,93450.69
2024-02-08T12:14:41.801Z,93452.53
2024-02-08T12:17:08.461Z,93453.66
2024-02-08T12:19:35.780Z,93453.81
2024-02-08T12:22:06.115Z,93450.53
2024-02-08T12:24:34.574Z,93437.09
2024-02-08T12:27:12.758Z,93442.09
2024-02-08T12:29:47.319Z,93440.38
2024-02-08T12:32:17.826Z,93438.94
2024-02-08T12:34:49.238Z,93446.41
2024-02-08T12:37:18.452Z,93436.28
2024-02-08T12:39:46.648Z,93430.94
2024-02-08T12:42:15.934Z,93440.06
2024-02-08T12:44:49.564Z,93432.34
2024-02-08T12:47:19.788Z,93433.81
2024-02-08T12:49:48.836Z,93433.03
2024-02-08T12:52:18.446Z,93423.44
2024-02-08T12:54:53.911Z,93417.25
2024-02-08T12:57:22.568Z,93426.94
2024-02-08T12:59:49.222Z,93410.06
2024-02-08T13:02:18.617Z,93403.97
2024-02-08T13:04:48.471Z,93407.38
2024-02-08T13:07:18.999Z,93397.00
2024-02-08T13:09:46.679Z,93389.78
2024-02-08T13:12:22.171Z,93398.28
2024-02-08T13:14:51.989Z,93390.34
2024-02-08T13:17:22.566Z,93393.00
2024-02-08T13:19:50.526Z,93388.31
2024-02-08T13:22:25.154Z,93393.56
2024-02-08T13:24:53.224Z,93386.63
2024-02-08T13:27:25.981Z,93389.91
2024-02-08T13:29:53.387Z,93377.97
2024-02-08T13:32:20.517Z,93378.19
2024-02-08T13:34:50.282Z,93377.56
2024-02-08T13:37:21.489Z,93381.88
2024-02-08T13:39:54.800Z,93374.13
2024-02-08T13:42:26.983Z,93376.91
2024-02-08T13:44:59.096Z,93378.78
2024-02-08T13:47:33.257Z,93358.09
2024-02-08T13:50:00.629Z,93381.41
2024-02-08T13:52:30.874Z,93371.56
2024-02-08T13:54:59.970Z,93373.78
2024-02-08T13:57:26.815Z,93363.56
2024-02-08T13:59:56.631Z,93364.53
2024-02-08T14:02:24.731Z,93372.47
2024-02-08T14:04:54.131Z,93365.31
2024-02-08T14:07:26.485Z,93348.69
2024-02-08T14:10:00.448Z,93360.59
2024-02-08T14:12:27.641Z,93360.63
2024-02-08T14:14:55.917Z,93377.88
2024-02-08T14:17:23.172Z,93368.44
2024-02-08T14:19:50.332Z,93371.56
2024-02-08T14:22:21.519Z,93353.00
2024-02-08T14:24:52.048Z,93366.66
2024-02-08T14:27:19.220Z,93364.75
2024-02-08T14:29:45.957Z,93378.06
2024-02-08T14:32:21.027Z,93378.09
2024-02-08T14:34:55.121Z,93379.03
2024-02-08T14:37:23.180Z,93383.66
2024-02-08T14:39:50.292Z,93379.69
2024-02-08T14:42:26.201Z,93370.53
2024-02-08T14:44:55.324Z,93365.00
2024-02-08T14:47:32.566Z,93357.31
2024-02-08T14:50:01.194Z,93353.09
2024-02-08T14:52:30.930Z,93349.38
2024-02-08T14:55:10.405Z,93345.94
2024-02-08T14:57:43.842Z,93345.66
2024-02-08T15:00:29.590Z,93343.16
2024-02-08T15:03:09.551Z,93334.22
2024-02-08T15:05:50.138Z,93334.69
2024-02-08T15:08:23.489Z,93322.56
2024-02-08T15:11:01.027Z,93315.59
2024-02-08T15:13:27.898Z,93317.41
2024-02-08T15:15:56.523Z,93316.16
2024-02-08T15:18:40.238Z,93318.00
2024-02-08T15:21:08.161Z,93325.50
2024-02-08T15:24:05.539Z,93321.78
2024-02-08T15:26:38.407Z,93319.47
2024-02-08T15:29:05.740Z,93322.53
2024-02-08T15:31:48.510Z,93311.09
2024-02-08T15:34:16.158Z,93311.31
2024-02-08T15:36:51.942Z,93306.47
2024-02-08T15:39:37.498Z,93307.09
2024-02-08T15:42:10.822Z,93298.94
2024-02-08T15:44:53.811Z,93297.22
2024-02-08T15:47:21.810Z,93293.66
2024-02-08T15:49:56.314Z,93291.25
2024-02-08T15:52:24.394Z,93287.03
2024-02-08T15:54:57.362Z,93285.94
2024-02-08T15:57:30.883Z,93275.06
2024-02-08T16:00:01.095Z,93269.09
2024-02-08T16:02:28.359Z,93257.84
2024-02-08T16:04:55.269Z,93262.13
2024-02-08T16:07:29.467Z,93251.31
2024-02-08T16:09:59.992Z,93246.34
2024-02-08T16:12:32.836Z,93253.31
2024-02-08T16:15:06.743Z,93256.53
2024-02-08T16:17:36.224Z,93259.59
2024-02-08T16:20:18.665Z,93256.66
2024-02-08T16:23:17.812Z,93252.50
2024-02-08T16:25:49.313Z,93251.47
2024-02-08T16:28:24.515Z,93255.00
2024-02-08T16:30:59.296Z,93263.34
2024-02-08T16:33:49.538Z,93269.22
2024-02-08T16:36:31.094Z,93274.63
2024-02-08T16:39:09.295Z,93288.63
2024-02-08T16:41:58.088Z,93281.88
2024-02-08T16:44:52.156Z,93281.84
2024-02-08T16:47:29.453Z,93285.50
2024-02-08T16:50:00.013Z,93283.97
2024-02-08T16:52:36.212Z,93284.03
2024-02-08T16:55:13.685Z,93281.56
2024-02-08T16:57:40.946Z,93287.16
2024-02-08T17:00:26.992Z,93285.69
2024-02-08T17:03:06.329Z,93290.13
2024-02-08T17:05:55.196Z,93286.34
2024-02-08T17:08:22.856Z,93294.47
2024-02-08T17:10:57.006Z,93296.88
2024-02-08T17:13:36.203Z,93284.56
2024-02-08T17:16:26.246Z,93276.50
2024-02-08T17:19:11.900Z,93282.56
2024-02-08T17:21:53.812Z,93283.53
2024-02-08T17:24:30.929Z,93286.13
2024-02-08T17:27:01.017Z,93282.84
2024-02-08T17:29:36.923Z,93277.03
2024-02-08T17:32:08.861Z,93277.06
2024-02-08T17:34:38.763Z,93263.50
2024-02-08T17:37:05.725Z,93273.91
2024-02-08T17:39:41.896Z,93273.78
2024-02-08T17:42:09.611Z,93274.81
2024-02-08T17:44:39.116Z,93263.03
2024-02-08T17:47:08.785Z,93260.25
2024-02-08T17:49:35.878Z,93263.56
2024-02-08T17:52:03.244Z,93253.13
2024-02-08T17:54:53.485Z,93245.41
2024-02-08T17:57:26.393Z,93242.47
2024-02-08T18:00:00.022Z,93250.69
2024-02-08T18:02:27.779Z,93249.94
2024-02-08T18:04:54.802Z,93250.28
2024-02-08T18:07:21.887Z,93256.75
2024-02-08T18:10:18.225Z,93251.31
2024-02-08T18:12:45.758Z,93243.84
2024-02-08T18:15:14.312Z,93235.56
2024-02-08T18:17:46.217Z,93228.91
2024-02-08T18:20:16.550Z,93232.59
2024-02-08T18:22:43.759Z,93231.75
2024-02-08T18:25:11.516Z,93227.03
2024-02-08T18:27:38.217Z,93214.53
2024-02-08T18:30:10.175Z,93219.31
2024-02-08T18:32:40.344Z,93216.13
2024-02-08T18:35:08.969Z,93217.59
2024-02-08T18:37:36.281Z,93214.22
2024-02-08T18:40:09.184Z,93214.13
2024-02-08T18:42:39.777Z,93213.19
2024-02-08T18:45:17.913Z,93211.66
2024-02-08T18:47:45.369Z,93213.13
2024-02-08T18:50:14.282Z,93216.75
2024-02-08T18:52:43.423Z,93213.50
2024-02-08T18:55:30.184Z,93209.50
2024-02-08T18:57:56.917Z,93202.22
2024-02-08T19:00:26.272Z,93191.81
2024-02-08T19:02:53.003Z,93191.81
2024-02-08T19:05:19.838Z,93192.81
2024-02-08T19:07:47.628Z,93186.84
2024-02-08T19:10:14.696Z,93181.59
2024-02-08T19:12:42.551Z,93182.56
2024-02-08T19:15:10.826Z,93188.09
2024-02-08T19:17:43.289Z,93182.88
2024-02-08T19:20:19.737Z,93171.97
2024-02-08T19:22:47.265Z,93176.72
2024-02-08T19:25:15.475Z,93176.81
2024-02-08T19:27:45.071Z,93167.13
2024-02-08T19:30:14.275Z,93159.72
2024-02-08T19:32:41.095Z,93161.97
2024-02-08T19:35:11.517Z,93153.34
2024-02-08T19:37:38.399Z,93154.50
2024-02-08T19:40:09.875Z,93145.78
2024-02-08T19:42:36.942Z,93146.03
2024-02-08T19:45:13.133Z,93141.19
2024-02-08T19:47:39.892Z,93137.53
2024-02-08T19:50:10.069Z,93134.97
2024-02-08T19:52:41.651Z,93122.69
2024-02-08T19:55:16.585Z,93117.06
2024-02-08T19:57:49.061Z,93108.63
2024-02-08T20:00:19.112Z,93114.78
2024-02-08T20:02:48.093Z,93111.16
2024-02-08T20:05:14.907Z,93106.84
2024-02-08T20:07:41.973Z,93112.53
2024-02-08T20:10:15.195Z,93113.97
2024-02-08T20:12:50.082Z,93114.81
2024-02-08T20:15:20.916Z,93116.31
2024-02-08T20:17:51.318Z,93104.09
2024-02-08T20:20:23.429Z,93101.53
2024-02-08T20:22:54.073Z,93097.97
2024-02-08T20:25:28.551Z,93098.50
2024-02-08T20:27:56.788Z,93098.53
2024-02-08T20:30:26.654Z,93101.00
2024-02-08T20:32:53.774Z,93086.59
2024-02-08T20:35:20.928Z,93079.38
2024-02-08T20:37:47.926Z,93080.56
2024-02-08T20:40:14.928Z,93081.13
2024-02-08T20:42:41.904Z,93083.28
2024-02-08T20:45:11.872Z,93081.69
2024-02-08T20:47:39.086Z,93084.25
2024-02-08T20:50:06.370Z,93083.88
2024-02-08T20:52:33.921Z,93084.56
2024-02-08T20:55:01.747Z,93077.22
2024-02-08T20:57:29.135Z,93069.09
2024-02-08T20:59:56.455Z,93074.75
2024-02-08T21:02:25.577Z,93073.22
2024-02-08T21:04:52.681Z,93064.34
2024-02-08T21:07:21.672Z,93062.78
2024-02-08T21:09:52.162Z,93050.22
2024-02-08T21:12:18.900Z,93051.25
2024-02-08T21:14:45.621Z,93052.06
2024-02-08T21:17:12.464Z,93048.91
2024-02-08T21:19:44.673Z,93053.59
2024-02-08T21:22:16.758Z,93044.41
2024-02-08T21:24:43.640Z,93040.59
2024-02-08T21:27:18.052Z,93037.78
2024-02-08T21:29:46.090Z,93036.00
2024-02-08T21:32:12.934Z,93040.31
2024-02-08T21:34:39.750Z,93038.63
2024-02-08T21:37:09.894Z,93042.97
2024-02-08T21:39:41.246Z,93055.94
2024-02-08T21:42:08.156Z,93050.16
2024-02-08T21:44:35.650Z,93055.34
2024-02-08T21:47:02.376Z,93056.59
2024-02-08T21:49:29.060Z,93056.41
2024-02-08T21:51:55.817Z,93058.28
2024-02-08T21:54:22.831Z,93058.66
2024-02-08T21:56:50.022Z,93053.88
2024-02-08T21:59:19.434Z,93059.06
2024-02-08T22:01:46.042Z,93067.31
2024-02-08T22:04:12.793Z,93059.56
2024-02-08T22:06:40.973Z,93056.31
2024-02-08T22:09:11.327Z,93071.56
2024-02-08T22:11:48.797Z,93084.75
2024-02-08T22:14:18.625Z,93085.38
2024-02-08T22:16:45.292Z,93075.75
2024-02-08T22:19:15.410Z,93085.00
2024-02-08T22:21:46.158Z,93095.97
2024-02-08T22:24:14.378Z,93091.09
2024-02-08T22:26:47.730Z,93099.69
2024-02-08T22:29:14.830Z,93095.59
2024-02-08T22:31:41.751Z,93094.44
2024-02-08T22:34:11.340Z,93098.69
2024-02-08T22:36:38.405Z,93108.47
2024-02-08T22:39:17.129Z,93105.91
2024-02-08T22:41:45.974Z,93111.03
2024-02-08T22:44:12.865Z,93104.47
2024-02-08T22:46:40.484Z,93108.09
2024-02-08T22:49:07.204Z,93096.56
2024-02-08T22:51:35.047Z,93098.25
2024-02-08T22:54:09.102Z,93087.75
2024-02-08T22:56:41.021Z,93092.06
2024-02-08T22:59:10.772Z,93091.06
2024-02-08T23:01:38.897Z,93096.72
2024-02-08T23:04:06.804Z,93089.81
2024-02-08T23:06:36.458Z,93096.00
2024-02-08T23:09:07.225Z,93092.25
2024-02-08T23:11:37.909Z,93094.59
2024-02-08T23:14:08.121Z,93095.56
2024-02-08T23:16:34.928Z,93089.69
2024-02-08T23:19:02.177Z,93089.63
2024-02-08T23:21:32.235Z,93078.19
2024-02-08T23:24:08.581Z,93077.56
2024-02-08T23:26:36.406Z,93085.53
2024-02-08T23:29:03.629Z,93081.41
2024-02-08T23:31:32.296Z,93076.63
2024-02-08T23:34:02.898Z,93073.47
2024-02-08T23:36:30.336Z,93074.09
2024-02-08T23:39:00.924Z,93073.91
2024-02-08T23:41:30.896Z,93068.72
2024-02-08T23:44:00.762Z,93071.66
2024-02-08T23:46:27.554Z,93057.44
2024-02-08T23:48:56.488Z,93061.59
2024-02-08T23:51:23.378Z,93063.97
2024-02-08T23:53:53.322Z,93054.94
2024-02-08T23:56:20.247Z,93048.84
2024-02-08T23:58:48.073Z,93055.50
